Airfield :
LOGIN :

Register | Disclaimer

   EN    FR    IT 

 










Legend :    VFR   Marginal VFR   IFR   Intensive IFR   Very Intensive IFR
Visi :
Ceiling :
>= 8 km
>= 3000ft
5 to 8 km
1000 to 3000 ft
1500m to 5 km
500 to 1000 ft
800 to 1500m
200 to 500 ft
< 800m
< 200 ft
Symbols :   Thunderstorms  Fog  Heavy snow  Heavy precipitations  Wind > 20 kt
SIGMETs :     Misc.  Thunderstorms  Icing  Turbulence  Mountain Waves  Volcanic Ashes






- Airport Elevation : 14 ft
- IATA code : BRE


EDDW - Bremen Neuenland

CURRENT METAR :
  • 180150Z 21006KT 9999 SCT016 13/12 Q1008

EXPIRED METARs :
  • 180120Z 20005KT 9999 BKN008 13/13 Q1008
  • 180050Z 20003KT 7000 -RADZ BKN007 BKN016 14/13 Q1008
  • 180020Z 21002KT 9999 -RADZ BKN012 BKN035 13/13 Q1008
  • 172350Z 25003KT 9999 -RADZ BKN012 BKN035 14/13 Q1008
  • 172320Z 19009KT 9999 SCT012 BKN022 14/13 Q1008
  • 172250Z 17008KT 9999 -RADZ FEW007 BKN016 14/13 Q1008 RERA

TAF TAF EDDW
Valid from the 18 at 00:00 until the 19 at 00:00 UTC


172300Z 1800/1824 17005KT 9999 BKN025
TEMPO 1800/1808 2000 BCFG
PROB30
TEMPO 1800/1808 0500 FG BKN001
BECMG 1807/1809 20010KT
TEMPO 1810/1817 23015G25KT 4000 SHRA BKN020CB
PROB40
TEMPO 1812/1815 23015G35KT 2000 TSRA BKN013CB



MET'MAP, your aeronautical weather chart ! - Copyright ORBIFLY December 2007 - Disclaimer

ORBIFLY MET'MAP TEAM :

Programming & Development : Alexandra Zaïnal
Concept & Development : Baudouin d'Aumeries
Co-Development & Prog : Marc-Olivier Méhu
Technical & hardware support : Manuel Goepfert

Contact : metmap@orbifly.com




SOURCES & CREDITS :

   NOAA